createdAt,value
2023-01-30T00:02:52.591Z,87
2023-01-30T00:04:52.600Z,84
2023-01-30T00:07:52.584Z,81
2023-01-30T00:10:52.608Z,83
2023-01-30T00:12:52.712Z,87
2023-01-30T00:15:52.598Z,82
2023-01-30T00:18:52.581Z,84
2023-01-30T00:20:52.575Z,76
2023-01-30T00:23:52.574Z,77
2023-01-30T00:25:52.678Z,76
2023-01-30T00:28:52.624Z,73
2023-01-30T00:30:52.659Z,75
2023-01-30T00:34:52.916Z,77
2023-01-30T00:37:52.689Z,73
2023-01-30T00:40:52.620Z,75
2023-01-30T00:43:52.648Z,79
2023-01-30T00:45:52.635Z,80
2023-01-30T00:47:52.635Z,77
2023-01-30T00:49:52.637Z,75
2023-01-30T00:52:52.628Z,73
2023-01-30T00:54:52.638Z,77
2023-01-30T00:57:52.644Z,88
2023-01-30T01:00:52.607Z,85
2023-01-30T01:02:59.245Z,80
2023-01-30T01:05:59.186Z,84
2023-01-30T01:08:52.599Z,82
2023-01-30T01:10:52.604Z,84
2023-01-30T01:13:52.605Z,84
2023-01-30T01:15:52.636Z,84
2023-01-30T01:17:52.643Z,84
2023-01-30T01:21:52.602Z,74
2023-01-30T01:23:52.652Z,85
2023-01-30T01:26:52.593Z,90
2023-01-30T01:29:52.569Z,90
2023-01-30T01:31:52.609Z,95
2023-01-30T01:34:52.578Z,96
2023-01-30T01:36:54.102Z,96
2023-01-30T01:39:52.653Z,99
2023-01-30T01:42:52.566Z,102
2023-01-30T01:44:52.641Z,101
2023-01-30T01:46:52.659Z,104
2023-01-30T01:49:52.574Z,118
2023-01-30T01:52:52.585Z,99
2023-01-30T01:54:52.705Z,109
2023-01-30T01:57:52.571Z,111
2023-01-30T01:59:52.599Z,106
2023-01-30T02:02:52.593Z,108
2023-01-30T02:05:52.572Z,106
2023-01-30T02:08:52.587Z,105
2023-01-30T02:10:52.577Z,106
2023-01-30T02:13:52.696Z,106
2023-01-30T02:16:52.574Z,94
2023-01-30T02:18:52.684Z,96
2023-01-30T02:21:52.596Z,96
2023-01-30T02:24:52.583Z,81
2023-01-30T02:26:52.582Z,84
2023-01-30T02:29:52.691Z,89
2023-01-30T02:33:52.594Z,72
2023-01-30T02:36:52.713Z,79
2023-01-30T02:39:52.593Z,95
2023-01-30T02:42:52.602Z,96
2023-01-30T02:45:52.591Z,111
2023-01-30T02:48:52.592Z,113
2023-01-30T02:51:52.588Z,103
2023-01-30T02:53:52.581Z,112
2023-01-30T02:55:52.590Z,103
2023-01-30T02:58:52.604Z,95
2023-01-30T03:00:52.597Z,89
2023-01-30T03:03:52.591Z,92
2023-01-30T03:05:52.620Z,88
2023-01-30T03:08:52.606Z,94
2023-01-30T03:10:52.609Z,83
2023-01-30T03:13:52.581Z,75
2023-01-30T03:16:52.565Z,86
2023-01-30T03:19:52.578Z,88
2023-01-30T03:21:52.597Z,76
2023-01-30T03:23:52.650Z,93
2023-01-30T03:26:52.608Z,88
2023-01-30T03:29:52.573Z,88
2023-01-30T03:31:52.686Z,86
2023-01-30T03:34:52.593Z,89
2023-01-30T03:37:52.586Z,80
2023-01-30T03:39:59.208Z,83
2023-01-30T03:42:52.563Z,96
2023-01-30T03:45:52.588Z,90
2023-01-30T03:47:52.590Z,89
2023-01-30T03:50:52.597Z,100
2023-01-30T03:53:52.601Z,89
2023-01-30T03:55:52.572Z,88
2023-01-30T03:57:52.656Z,87
2023-01-30T04:00:59.327Z,79
2023-01-30T04:03:52.608Z,75
2023-01-30T04:06:52.579Z,70
2023-01-30T04:09:52.566Z,73
2023-01-30T04:11:59.172Z,80
2023-01-30T04:14:52.584Z,79
2023-01-30T04:16:52.649Z,88
2023-01-30T04:19:52.585Z,78
2023-01-30T04:21:52.585Z,79
2023-01-30T04:23:59.310Z,82
2023-01-30T04:26:52.592Z,86
2023-01-30T04:29:52.603Z,73
2023-01-30T04:32:52.596Z,62
2023-01-30T04:35:52.584Z,57
2023-01-30T04:38:52.639Z,57
2023-01-30T04:41:52.583Z,62
2023-01-30T04:43:52.595Z,60
2023-01-30T04:45:52.618Z,63
2023-01-30T04:48:52.589Z,61
2023-01-30T04:52:52.572Z,69
2023-01-30T04:54:52.604Z,61
2023-01-30T04:58:52.586Z,62
2023-01-30T05:01:52.592Z,67
2023-01-30T05:03:52.582Z,57
2023-01-30T05:05:52.640Z,60
2023-01-30T05:08:52.675Z,69
2023-01-30T05:12:52.586Z,55
2023-01-30T05:15:52.595Z,50
2023-01-30T05:18:52.581Z,47
2023-01-30T05:21:59.170Z,54
2023-01-30T05:24:52.658Z,38
2023-01-30T05:27:52.573Z,48
2023-01-30T05:29:52.645Z,40
2023-01-30T05:32:52.577Z,42
2023-01-30T05:34:52.602Z,38
2023-01-30T05:37:52.625Z,41
2023-01-30T05:40:52.590Z,42
2023-01-30T05:42:52.700Z,44
2023-01-30T05:45:52.581Z,41
2023-01-30T05:47:53.578Z,40
2023-01-30T05:49:52.593Z,60
2023-01-30T05:52:52.612Z,61
2023-01-30T05:55:52.572Z,52
2023-01-30T05:57:52.581Z,56
2023-01-30T05:59:52.589Z,52
2023-01-30T06:03:52.693Z,57
2023-01-30T06:06:52.631Z,59
2023-01-30T06:09:52.568Z,50
2023-01-30T06:11:53.332Z,51
2023-01-30T06:14:52.610Z,50
2023-01-30T06:17:52.594Z,50
2023-01-30T06:20:52.576Z,38
2023-01-30T06:22:52.610Z,55
2023-01-30T06:24:59.209Z,50
2023-01-30T06:27:52.591Z,52
2023-01-30T06:30:52.682Z,53
2023-01-30T06:32:52.599Z,52
2023-01-30T06:35:52.564Z,54
2023-01-30T06:37:52.587Z,51
2023-01-30T06:39:52.619Z,54
2023-01-30T06:41:52.632Z,51
2023-01-30T06:44:52.595Z,52
2023-01-30T06:47:52.595Z,47
2023-01-30T06:49:59.180Z,52
2023-01-30T06:52:59.183Z,43
2023-01-30T06:55:52.634Z,48
2023-01-30T06:58:52.594Z,57
2023-01-30T07:00:52.598Z,44
2023-01-30T07:03:52.695Z,45
2023-01-30T07:06:52.606Z,50
2023-01-30T07:10:06.679Z,47
2023-01-30T07:12:52.573Z,45
2023-01-30T07:14:52.698Z,39
2023-01-30T07:17:52.662Z,50
2023-01-30T07:20:52.593Z,42
2023-01-30T07:23:52.663Z,51
2023-01-30T07:26:52.590Z,48
2023-01-30T07:28:52.654Z,43
2023-01-30T07:31:52.697Z,45
2023-01-30T07:35:52.591Z,50
2023-01-30T07:38:52.641Z,43
2023-01-30T07:41:52.586Z,45
2023-01-30T07:43:52.616Z,43
2023-01-30T07:47:52.593Z,47
2023-01-30T07:50:52.588Z,47
2023-01-30T07:53:52.600Z,42
2023-01-30T07:55:52.597Z,43
2023-01-30T07:57:52.827Z,46
2023-01-30T08:00:52.629Z,46
2023-01-30T08:02:52.594Z,44
2023-01-30T08:05:52.579Z,43
2023-01-30T08:07:52.597Z,38
2023-01-30T08:10:52.616Z,44
2023-01-30T08:12:52.629Z,41
2023-01-30T08:15:52.574Z,42
2023-01-30T08:17:52.569Z,47
2023-01-30T08:19:52.614Z,45
2023-01-30T08:22:52.609Z,46
2023-01-30T08:25:52.595Z,43
2023-01-30T08:27:52.603Z,46
2023-01-30T08:30:52.669Z,42
2023-01-30T08:34:52.644Z,41
2023-01-30T08:37:52.623Z,43
2023-01-30T08:39:52.622Z,40
2023-01-30T08:42:52.618Z,38
2023-01-30T08:45:52.717Z,41
2023-01-30T08:49:52.625Z,38
2023-01-30T08:51:52.682Z,33
2023-01-30T08:53:52.695Z,38
2023-01-30T08:56:52.594Z,32
2023-01-30T08:58:52.566Z,33
2023-01-30T09:00:52.611Z,37
2023-01-30T09:02:52.627Z,35
2023-01-30T09:05:52.596Z,34
2023-01-30T09:08:52.601Z,31
2023-01-30T09:11:52.594Z,33
2023-01-30T09:14:52.611Z,36
2023-01-30T09:17:52.617Z,36
2023-01-30T09:20:53.495Z,29
2023-01-30T09:22:52.604Z,34
2023-01-30T09:25:52.596Z,31
2023-01-30T09:27:52.631Z,30
2023-01-30T09:30:59.282Z,31
2023-01-30T09:33:52.612Z,34
2023-01-30T09:36:52.594Z,34
2023-01-30T09:38:52.616Z,30
2023-01-30T09:41:52.572Z,30
2023-01-30T09:43:52.698Z,28
2023-01-30T09:46:52.583Z,28
2023-01-30T09:48:59.158Z,29
2023-01-30T09:51:52.664Z,26
2023-01-30T09:54:52.598Z,24
2023-01-30T09:56:52.626Z,28
2023-01-30T09:59:52.632Z,26
2023-01-30T10:01:52.611Z,24
2023-01-30T10:03:52.636Z,25
2023-01-30T10:06:52.600Z,23
2023-01-30T10:08:52.610Z,23
2023-01-30T10:11:00.953Z,29
2023-01-30T10:13:52.651Z,31
2023-01-30T10:16:52.571Z,29
2023-01-30T10:18:52.584Z,36
2023-01-30T10:21:52.590Z,29
2023-01-30T10:23:52.704Z,28
2023-01-30T10:26:52.594Z,27
2023-01-30T10:29:05.368Z,30
2023-01-30T10:31:52.631Z,30
2023-01-30T10:33:52.594Z,29
2023-01-30T10:36:52.565Z,28
2023-01-30T10:38:52.696Z,26
2023-01-30T10:41:52.576Z,27
2023-01-30T10:43:52.586Z,28
2023-01-30T10:45:52.605Z,32
2023-01-30T10:47:52.621Z,30
2023-01-30T10:50:52.590Z,29
2023-01-30T10:52:52.596Z,32
2023-01-30T10:54:52.702Z,29
2023-01-30T10:57:52.574Z,30
2023-01-30T10:59:52.595Z,29
2023-01-30T11:02:52.618Z,28
2023-01-30T11:04:52.655Z,28
2023-01-30T11:07:52.631Z,28
2023-01-30T11:10:59.194Z,28
2023-01-30T11:13:59.168Z,26
2023-01-30T11:21:52.619Z,25
2023-01-30T11:24:52.567Z,27
2023-01-30T11:27:52.658Z,21
2023-01-30T11:30:59.162Z,23
2023-01-30T11:33:52.663Z,27
2023-01-30T11:36:52.562Z,22
2023-01-30T11:38:52.643Z,21
2023-01-30T11:41:52.587Z,24
2023-01-30T11:44:52.926Z,18
2023-01-30T11:47:57.003Z,23
2023-01-30T11:51:52.638Z,19
2023-01-30T11:56:02.464Z,22
2023-01-30T11:57:52.583Z,19
2023-01-30T12:00:52.649Z,24
2023-01-30T12:03:52.564Z,21
2023-01-30T12:06:52.587Z,21
2023-01-30T12:08:52.609Z,19
2023-01-30T12:11:52.596Z,23
2023-01-30T12:13:52.555Z,19
2023-01-30T12:15:52.570Z,23
2023-01-30T12:18:59.155Z,25
2023-01-30T12:20:59.195Z,24
2023-01-30T12:23:52.607Z,26
2023-01-30T12:25:52.622Z,24
2023-01-30T12:28:52.649Z,27
2023-01-30T12:31:52.638Z,28
2023-01-30T12:33:52.641Z,26
2023-01-30T12:37:52.655Z,21
2023-01-30T12:40:52.602Z,28
2023-01-30T12:42:59.160Z,31
2023-01-30T12:45:52.646Z,25
2023-01-30T12:49:08.191Z,26
2023-01-30T12:51:52.590Z,28
2023-01-30T12:54:52.609Z,27
2023-01-30T12:57:52.619Z,30
2023-01-30T13:00:52.596Z,35
2023-01-30T13:02:52.756Z,30
2023-01-30T13:05:52.553Z,35
2023-01-30T13:08:52.612Z,29
2023-01-30T13:10:52.620Z,32
2023-01-30T13:13:52.632Z,38
2023-01-30T13:15:53.342Z,30
2023-01-30T13:18:52.595Z,31
2023-01-30T13:21:00.407Z,24
2023-01-30T13:22:59.273Z,32
2023-01-30T13:24:59.197Z,29
2023-01-30T13:27:52.594Z,34
2023-01-30T13:30:52.635Z,29
2023-01-30T13:32:52.610Z,29
2023-01-30T13:36:52.633Z,27
2023-01-30T13:39:52.686Z,27
2023-01-30T13:41:52.609Z,25
2023-01-30T13:44:52.581Z,25
2023-01-30T13:46:52.678Z,24
2023-01-30T13:48:59.156Z,29
2023-01-30T13:51:52.583Z,24
2023-01-30T13:54:52.646Z,21
2023-01-30T13:56:52.653Z,27
2023-01-30T13:59:52.712Z,26
2023-01-30T14:03:52.946Z,26
2023-01-30T14:06:52.598Z,67
2023-01-30T14:08:52.574Z,37
2023-01-30T14:22:52.610Z,21
2023-01-30T14:24:52.583Z,27
2023-01-30T14:27:52.616Z,21
2023-01-30T14:30:52.563Z,23
2023-01-30T14:33:52.599Z,27
2023-01-30T14:35:52.598Z,25
2023-01-30T14:37:52.600Z,25
2023-01-30T14:41:52.583Z,26
2023-01-30T14:45:52.660Z,27
2023-01-30T14:47:52.659Z,24
2023-01-30T14:50:52.581Z,28
2023-01-30T14:53:52.577Z,28
2023-01-30T14:57:52.590Z,26
2023-01-30T15:00:11.419Z,27
2023-01-30T15:03:52.598Z,28
2023-01-30T15:06:52.605Z,31
2023-01-30T15:08:52.608Z,26
2023-01-30T15:11:52.609Z,23
2023-01-30T15:14:54.008Z,26
2023-01-30T15:16:59.193Z,30
2023-01-30T15:18:59.183Z,23
2023-01-30T15:21:52.575Z,21
2023-01-30T15:23:59.202Z,22
2023-01-30T15:26:52.657Z,22
2023-01-30T15:28:59.168Z,22
2023-01-30T15:31:52.695Z,24
2023-01-30T15:34:52.589Z,23
2023-01-30T15:36:52.619Z,22
2023-01-30T15:38:52.591Z,25
2023-01-30T15:40:52.678Z,29
2023-01-30T15:43:52.619Z,23
2023-01-30T15:46:52.629Z,24
2023-01-30T15:49:52.603Z,22
2023-01-30T15:52:52.592Z,28
2023-01-30T15:54:59.234Z,29
2023-01-30T15:57:52.648Z,25
2023-01-30T15:59:52.610Z,33
2023-01-30T16:02:52.606Z,26
2023-01-30T16:04:52.644Z,31
2023-01-30T16:07:52.701Z,31
2023-01-30T16:10:52.580Z,31
2023-01-30T16:12:52.610Z,32
2023-01-30T16:15:52.607Z,23
2023-01-30T16:18:52.563Z,32
2023-01-30T16:21:01.427Z,28
2023-01-30T16:22:52.641Z,27
2023-01-30T16:25:59.188Z,29
2023-01-30T16:28:52.617Z,33
2023-01-30T16:30:52.700Z,33
2023-01-30T16:33:52.672Z,29
2023-01-30T16:35:52.631Z,36
2023-01-30T16:38:52.596Z,31
2023-01-30T16:40:52.590Z,35
2023-01-30T16:42:52.569Z,32
2023-01-30T16:44:52.595Z,30
2023-01-30T16:47:52.656Z,32
2023-01-30T16:50:52.582Z,28
2023-01-30T16:53:52.636Z,31
2023-01-30T16:55:59.190Z,26
2023-01-30T16:59:59.219Z,26
2023-01-30T17:01:59.401Z,28
2023-01-30T17:04:52.619Z,31
2023-01-30T17:06:52.650Z,28
2023-01-30T17:09:52.608Z,27
2023-01-30T17:11:59.170Z,27
2023-01-30T17:14:52.602Z,31
2023-01-30T17:16:52.588Z,29
2023-01-30T17:18:52.656Z,28
2023-01-30T17:21:52.593Z,27
2023-01-30T17:23:52.593Z,29
2023-01-30T17:25:59.189Z,30
2023-01-30T17:28:52.584Z,30
2023-01-30T17:30:52.762Z,32
2023-01-30T17:33:59.192Z,31
2023-01-30T17:36:52.615Z,37
2023-01-30T17:39:52.568Z,39
2023-01-30T17:41:52.576Z,45
2023-01-30T17:43:52.582Z,38
2023-01-30T17:46:52.590Z,45
2023-01-30T17:49:52.609Z,43
2023-01-30T17:51:52.610Z,45
2023-01-30T17:54:53.651Z,39
2023-01-30T17:56:52.596Z,38
2023-01-30T17:58:59.182Z,46
2023-01-30T18:01:52.690Z,40
2023-01-30T18:04:52.579Z,44
2023-01-30T18:07:52.596Z,47
2023-01-30T18:11:52.635Z,43
2023-01-30T18:14:52.613Z,45
2023-01-30T18:17:52.567Z,41
2023-01-30T18:19:52.574Z,44
2023-01-30T18:23:52.565Z,45
2023-01-30T18:25:52.588Z,51
2023-01-30T18:27:52.659Z,46
2023-01-30T18:30:59.368Z,47
2023-01-30T18:33:52.661Z,47
2023-01-30T18:36:52.606Z,50
2023-01-30T18:40:52.607Z,47
2023-01-30T18:43:52.588Z,55
2023-01-30T18:45:52.667Z,49
2023-01-30T18:48:52.606Z,54
2023-01-30T18:51:52.607Z,55
2023-01-30T18:53:52.625Z,48
2023-01-30T18:56:52.588Z,45
2023-01-30T18:59:59.153Z,49
2023-01-30T19:02:52.718Z,50
2023-01-30T19:05:59.171Z,60
2023-01-30T19:08:52.611Z,52
2023-01-30T19:10:52.682Z,60
2023-01-30T19:13:52.651Z,50
2023-01-30T19:16:52.610Z,50
2023-01-30T19:19:53.637Z,57
2023-01-30T19:21:52.688Z,54
2023-01-30T19:24:52.609Z,49
2023-01-30T19:26:52.636Z,52
2023-01-30T19:29:52.838Z,47
2023-01-30T19:33:52.875Z,49
2023-01-30T19:36:52.608Z,48
2023-01-30T19:39:52.603Z,51
2023-01-30T19:41:59.172Z,48
2023-01-30T19:44:52.576Z,52
2023-01-30T19:47:52.603Z,44
2023-01-30T19:50:52.586Z,50
2023-01-30T19:52:52.608Z,52
2023-01-30T19:55:52.629Z,45
2023-01-30T19:57:52.616Z,47
2023-01-30T20:00:52.588Z,46
2023-01-30T20:02:59.233Z,45
2023-01-30T20:05:52.572Z,56
2023-01-30T20:07:52.606Z,55
2023-01-30T20:09:52.604Z,55
2023-01-30T20:12:53.635Z,56
2023-01-30T20:14:52.586Z,57
2023-01-30T20:17:52.687Z,58
2023-01-30T20:20:52.588Z,57
2023-01-30T20:23:52.621Z,59
2023-01-30T20:26:52.681Z,64
2023-01-30T20:29:53.255Z,62
2023-01-30T20:32:52.572Z,56
2023-01-30T20:35:52.607Z,67
2023-01-30T20:38:52.608Z,70
2023-01-30T20:41:52.622Z,69
2023-01-30T20:43:52.647Z,64
2023-01-30T20:47:52.640Z,64
2023-01-30T20:51:52.719Z,66
2023-01-30T20:54:52.620Z,71
2023-01-30T20:57:52.611Z,69
2023-01-30T20:59:52.641Z,75
2023-01-30T21:02:52.599Z,67
2023-01-30T21:04:52.589Z,77
2023-01-30T21:07:52.584Z,76
2023-01-30T21:09:52.621Z,73
2023-01-30T21:12:52.590Z,70
2023-01-30T21:15:52.588Z,80
2023-01-30T21:17:52.592Z,74
2023-01-30T21:20:52.608Z,74
2023-01-30T21:22:52.601Z,70
2023-01-30T21:24:52.601Z,70
2023-01-30T21:26:52.700Z,80
2023-01-30T21:29:52.592Z,73
2023-01-30T21:31:52.814Z,79
2023-01-30T21:34:52.616Z,80
2023-01-30T21:37:52.620Z,78
2023-01-30T21:40:52.607Z,81
2023-01-30T21:42:52.594Z,74
2023-01-30T21:45:52.637Z,79
2023-01-30T21:47:52.611Z,77
2023-01-30T21:49:52.613Z,74
2023-01-30T21:52:52.605Z,64
2023-01-30T21:54:52.608Z,75
2023-01-30T21:57:52.672Z,74
2023-01-30T22:00:52.640Z,72
2023-01-30T22:03:52.642Z,75
2023-01-30T22:05:52.606Z,83
2023-01-30T22:08:52.683Z,71
2023-01-30T22:11:52.594Z,81
2023-01-30T22:14:52.660Z,73
2023-01-30T22:17:53.052Z,73
2023-01-30T22:20:52.789Z,76
2023-01-30T22:23:52.608Z,80
2023-01-30T22:25:52.629Z,69
2023-01-30T22:28:52.603Z,76
2023-01-30T22:30:52.686Z,69
2023-01-30T22:33:52.602Z,65
2023-01-30T22:35:52.709Z,71
2023-01-30T22:38:52.629Z,65
2023-01-30T22:40:52.653Z,64
2023-01-30T22:43:52.634Z,56
2023-01-30T22:45:52.643Z,60
2023-01-30T22:47:52.651Z,61
2023-01-30T22:51:52.603Z,58
2023-01-30T22:53:52.605Z,56
2023-01-30T22:55:52.618Z,51
2023-01-30T22:57:52.596Z,55
2023-01-30T22:59:52.612Z,60
2023-01-30T23:01:59.191Z,57
2023-01-30T23:04:59.178Z,60
2023-01-30T23:08:52.608Z,48
2023-01-30T23:11:52.592Z,59
2023-01-30T23:13:52.590Z,50
2023-01-30T23:15:52.637Z,50
2023-01-30T23:19:52.585Z,47
2023-01-30T23:22:52.604Z,48
2023-01-30T23:25:52.631Z,46
2023-01-30T23:28:52.618Z,49
2023-01-30T23:30:52.672Z,46
2023-01-30T23:32:52.602Z,52
2023-01-30T23:34:52.629Z,49
2023-01-30T23:37:52.596Z,46
2023-01-30T23:39:52.610Z,44
2023-01-30T23:42:52.610Z,53
2023-01-30T23:45:59.278Z,53
2023-01-30T23:48:52.578Z,54
2023-01-30T23:50:52.622Z,60
2023-01-30T23:53:52.614Z,57
2023-01-30T23:55:59.187Z,65
2023-01-30T23:58:52.599Z,57
